sensor_id;sensor_type;location;lat;lon;timestamp;temperature;humidity
26623;DHT22;14254;50.968;5.366;2023-06-22T00:00:55;21.70;99.90
26623;DHT22;14254;50.968;5.366;2023-06-22T00:03:22;21.60;99.90
26623;DHT22;14254;50.968;5.366;2023-06-22T00:05:50;21.60;99.90
26623;DHT22;14254;50.968;5.366;2023-06-22T00:08:16;21.70;99.90
26623;DHT22;14254;50.968;5.366;2023-06-22T00:10:42;21.70;99.90
26623;DHT22;14254;50.968;5.366;2023-06-22T00:13:09;21.60;99.90
26623;DHT22;14254;50.968;5.366;2023-06-22T00:15:36;21.60;99.90
26623;DHT22;14254;50.968;5.366;2023-06-22T00:18:02;21.50;99.90
26623;DHT22;14254;50.968;5.366;2023-06-22T00:20:28;21.40;99.90
26623;DHT22;14254;50.968;5.366;2023-06-22T00:22:58;21.30;99.90
26623;DHT22;14254;50.968;5.366;2023-06-22T00:25:24;21.40;99.90
26623;DHT22;14254;50.968;5.366;2023-06-22T00:27:50;21.40;99.90
26623;DHT22;14254;50.968;5.366;2023-06-22T00:30:17;21.30;99.90
26623;DHT22;14254;50.968;5.366;2023-06-22T00:32:43;21.30;99.90
26623;DHT22;14254;50.968;5.366;2023-06-22T00:35:09;21.40;99.90
26623;DHT22;14254;50.968;5.366;2023-06-22T00:37:39;21.40;99.90
26623;DHT22;14254;50.968;5.366;2023-06-22T00:40:08;21.40;99.90
26623;DHT22;14254;50.968;5.366;2023-06-22T00:42:36;21.50;99.90
26623;DHT22;14254;50.968;5.366;2023-06-22T00:45:02;21.50;99.90
26623;DHT22;14254;50.968;5.366;2023-06-22T00:47:28;21.40;99.90
26623;DHT22;14254;50.968;5.366;2023-06-22T00:49:54;21.40;99.90
26623;DHT22;14254;50.968;5.366;2023-06-22T00:52:22;21.50;99.90
26623;DHT22;14254;50.968;5.366;2023-06-22T00:54:52;21.10;99.90
26623;DHT22;14254;50.968;5.366;2023-06-22T00:57:18;21.00;99.90
26623;DHT22;14254;50.968;5.366;2023-06-22T00:59:46;20.90;99.90
26623;DHT22;14254;50.968;5.366;2023-06-22T01:02:13;21.00;99.90
26623;DHT22;14254;50.968;5.366;2023-06-22T01:04:39;21.00;99.90
26623;DHT22;14254;50.968;5.366;2023-06-22T01:07:49;21.00;99.90
26623;DHT22;14254;50.968;5.366;2023-06-22T01:10:19;21.10;99.90
26623;DHT22;14254;50.968;5.366;2023-06-22T01:13:02;21.20;99.90
26623;DHT22;14254;50.968;5.366;2023-06-22T01:15:31;21.20;99.90
26623;DHT22;14254;50.968;5.366;2023-06-22T01:17:59;21.30;99.90
26623;DHT22;14254;50.968;5.366;2023-06-22T01:20:28;21.40;99.90
26623;DHT22;14254;50.968;5.366;2023-06-22T01:23:20;21.30;99.90
26623;DHT22;14254;50.968;5.366;2023-06-22T01:28:52;21.20;99.90
26623;DHT22;14254;50.968;5.366;2023-06-22T01:31:26;21.20;99.90
26623;DHT22;14254;50.968;5.366;2023-06-22T01:33:58;21.30;99.90
26623;DHT22;14254;50.968;5.366;2023-06-22T01:36:25;21.20;99.90
26623;DHT22;14254;50.968;5.366;2023-06-22T01:38:52;21.10;99.90
26623;DHT22;14254;50.968;5.366;2023-06-22T01:41:19;20.90;99.90
26623;DHT22;14254;50.968;5.366;2023-06-22T01:43:45;20.80;99.90
26623;DHT22;14254;50.968;5.366;2023-06-22T01:46:11;20.90;99.90
26623;DHT22;14254;50.968;5.366;2023-06-22T01:48:38;21.00;99.90
26623;DHT22;14254;50.968;5.366;2023-06-22T01:51:04;20.90;99.90
26623;DHT22;14254;50.968;5.366;2023-06-22T01:53:30;20.80;99.90
26623;DHT22;14254;50.968;5.366;2023-06-22T01:55:57;20.70;99.90
26623;DHT22;14254;50.968;5.366;2023-06-22T01:58:26;20.50;99.90
26623;DHT22;14254;50.968;5.366;2023-06-22T02:01:12;20.50;99.90
26623;DHT22;14254;50.968;5.366;2023-06-22T02:03:46;20.50;99.90
26623;DHT22;14254;50.968;5.366;2023-06-22T02:06:27;20.50;99.90
26623;DHT22;14254;50.968;5.366;2023-06-22T02:08:57;20.40;99.90
26623;DHT22;14254;50.968;5.366;2023-06-22T02:11:25;20.30;99.90
26623;DHT22;14254;50.968;5.366;2023-06-22T02:13:52;20.40;99.90
26623;DHT22;14254;50.968;5.366;2023-06-22T02:16:19;20.50;99.90
26623;DHT22;14254;50.968;5.366;2023-06-22T02:18:49;20.40;99.90
26623;DHT22;14254;50.968;5.366;2023-06-22T02:21:20;20.40;99.90
26623;DHT22;14254;50.968;5.366;2023-06-22T02:23:46;20.50;99.90
26623;DHT22;14254;50.968;5.366;2023-06-22T02:26:13;20.50;99.90
26623;DHT22;14254;50.968;5.366;2023-06-22T02:28:39;20.60;99.90
26623;DHT22;14254;50.968;5.366;2023-06-22T02:31:04;20.60;99.90
26623;DHT22;14254;50.968;5.366;2023-06-22T02:33:30;20.60;99.90
26623;DHT22;14254;50.968;5.366;2023-06-22T02:35:56;20.60;99.90
26623;DHT22;14254;50.968;5.366;2023-06-22T02:38:22;20.40;99.90
26623;DHT22;14254;50.968;5.366;2023-06-22T02:40:50;20.40;99.90
26623;DHT22;14254;50.968;5.366;2023-06-22T02:43:16;20.50;99.90
26623;DHT22;14254;50.968;5.366;2023-06-22T02:45:42;20.30;99.90
26623;DHT22;14254;50.968;5.366;2023-06-22T02:48:07;20.20;99.90
26623;DHT22;14254;50.968;5.366;2023-06-22T02:50:33;20.10;99.90
26623;DHT22;14254;50.968;5.366;2023-06-22T02:52:59;20.10;99.90
26623;DHT22;14254;50.968;5.366;2023-06-22T02:55:24;20.10;99.90
26623;DHT22;14254;50.968;5.366;2023-06-22T02:57:50;20.00;99.90
26623;DHT22;14254;50.968;5.366;2023-06-22T03:00:19;20.00;99.90
26623;DHT22;14254;50.968;5.366;2023-06-22T03:02:48;19.90;99.90
26623;DHT22;14254;50.968;5.366;2023-06-22T03:05:15;19.90;99.90
26623;DHT22;14254;50.968;5.366;2023-06-22T03:07:46;19.80;99.90
26623;DHT22;14254;50.968;5.366;2023-06-22T03:10:13;19.70;99.90
26623;DHT22;14254;50.968;5.366;2023-06-22T03:12:39;19.60;99.90
26623;DHT22;14254;50.968;5.366;2023-06-22T03:15:09;19.60;99.90
26623;DHT22;14254;50.968;5.366;2023-06-22T03:17:36;19.60;99.90
26623;DHT22;14254;50.968;5.366;2023-06-22T03:20:04;19.60;99.90
26623;DHT22;14254;50.968;5.366;2023-06-22T03:22:35;19.60;99.90
26623;DHT22;14254;50.968;5.366;2023-06-22T03:25:01;19.50;99.90
26623;DHT22;14254;50.968;5.366;2023-06-22T03:27:27;19.60;99.90
26623;DHT22;14254;50.968;5.366;2023-06-22T03:29:52;19.60;99.90
26623;DHT22;14254;50.968;5.366;2023-06-22T03:32:18;19.70;99.90
26623;DHT22;14254;50.968;5.366;2023-06-22T03:34:44;19.60;99.90
26623;DHT22;14254;50.968;5.366;2023-06-22T03:37:15;19.60;99.90
26623;DHT22;14254;50.968;5.366;2023-06-22T03:39:41;19.60;99.90
26623;DHT22;14254;50.968;5.366;2023-06-22T03:42:07;19.80;99.90
26623;DHT22;14254;50.968;5.366;2023-06-22T03:44:34;19.70;99.90
26623;DHT22;14254;50.968;5.366;2023-06-22T03:47:04;19.80;99.90
26623;DHT22;14254;50.968;5.366;2023-06-22T03:49:30;19.70;99.90
26623;DHT22;14254;50.968;5.366;2023-06-22T03:51:55;19.70;99.90
26623;DHT22;14254;50.968;5.366;2023-06-22T03:54:21;19.70;99.90
26623;DHT22;14254;50.968;5.366;2023-06-22T03:56:47;19.90;99.90
26623;DHT22;14254;50.968;5.366;2023-06-22T03:59:12;19.90;99.90
26623;DHT22;14254;50.968;5.366;2023-06-22T04:01:38;19.90;99.90
26623;DHT22;14254;50.968;5.366;2023-06-22T04:04:05;19.90;99.90
26623;DHT22;14254;50.968;5.366;2023-06-22T04:06:31;19.90;99.90
26623;DHT22;14254;50.968;5.366;2023-06-22T04:08:56;20.00;99.90
26623;DHT22;14254;50.968;5.366;2023-06-22T04:11:22;20.10;99.90
26623;DHT22;14254;50.968;5.366;2023-06-22T04:13:47;20.10;99.90
26623;DHT22;14254;50.968;5.366;2023-06-22T04:16:14;20.30;99.90
26623;DHT22;14254;50.968;5.366;2023-06-22T04:18:40;20.30;99.90
26623;DHT22;14254;50.968;5.366;2023-06-22T04:21:07;20.20;99.90
26623;DHT22;14254;50.968;5.366;2023-06-22T04:23:32;20.50;99.90
26623;DHT22;14254;50.968;5.366;2023-06-22T04:25:58;20.50;99.90
26623;DHT22;14254;50.968;5.366;2023-06-22T04:28:25;20.50;99.90
26623;DHT22;14254;50.968;5.366;2023-06-22T04:30:50;20.70;99.90
26623;DHT22;14254;50.968;5.366;2023-06-22T04:33:16;20.60;99.90
26623;DHT22;14254;50.968;5.366;2023-06-22T04:35:45;20.50;99.90
26623;DHT22;14254;50.968;5.366;2023-06-22T04:38:12;20.70;99.90
26623;DHT22;14254;50.968;5.366;2023-06-22T04:40:39;20.90;99.90
26623;DHT22;14254;50.968;5.366;2023-06-22T04:43:05;21.00;99.90
26623;DHT22;14254;50.968;5.366;2023-06-22T04:45:32;21.00;99.90
26623;DHT22;14254;50.968;5.366;2023-06-22T04:47:58;21.10;99.90
26623;DHT22;14254;50.968;5.366;2023-06-22T04:50:24;21.10;99.90
26623;DHT22;14254;50.968;5.366;2023-06-22T04:52:50;21.00;99.90
26623;DHT22;14254;50.968;5.366;2023-06-22T04:55:16;20.90;99.90
26623;DHT22;14254;50.968;5.366;2023-06-22T04:57:47;20.90;99.90
26623;DHT22;14254;50.968;5.366;2023-06-22T05:00:16;21.00;99.90
26623;DHT22;14254;50.968;5.366;2023-06-22T05:02:44;20.80;99.90
26623;DHT22;14254;50.968;5.366;2023-06-22T05:05:13;20.60;99.90
26623;DHT22;14254;50.968;5.366;2023-06-22T05:07:44;20.40;99.90
26623;DHT22;14254;50.968;5.366;2023-06-22T05:10:11;20.00;99.90
26623;DHT22;14254;50.968;5.366;2023-06-22T05:12:38;19.80;99.90
26623;DHT22;14254;50.968;5.366;2023-06-22T05:15:08;19.60;99.90
26623;DHT22;14254;50.968;5.366;2023-06-22T05:17:34;19.60;99.90
26623;DHT22;14254;50.968;5.366;2023-06-22T05:20:01;19.40;99.90
26623;DHT22;14254;50.968;5.366;2023-06-22T05:22:27;19.40;99.90
26623;DHT22;14254;50.968;5.366;2023-06-22T05:24:53;19.30;99.90
26623;DHT22;14254;50.968;5.366;2023-06-22T05:27:18;19.40;99.90
26623;DHT22;14254;50.968;5.366;2023-06-22T05:29:44;19.40;99.90
26623;DHT22;14254;50.968;5.366;2023-06-22T05:32:10;19.40;99.90
26623;DHT22;14254;50.968;5.366;2023-06-22T05:34:36;19.40;99.90
26623;DHT22;14254;50.968;5.366;2023-06-22T05:37:02;19.40;99.90
26623;DHT22;14254;50.968;5.366;2023-06-22T05:39:28;19.40;99.90
26623;DHT22;14254;50.968;5.366;2023-06-22T05:41:53;19.40;99.90
26623;DHT22;14254;50.968;5.366;2023-06-22T05:44:19;19.40;99.90
26623;DHT22;14254;50.968;5.366;2023-06-22T05:46:45;19.40;99.90
26623;DHT22;14254;50.968;5.366;2023-06-22T05:49:12;19.40;99.90
26623;DHT22;14254;50.968;5.366;2023-06-22T05:51:38;19.40;99.90
26623;DHT22;14254;50.968;5.366;2023-06-22T05:54:04;19.50;99.90
26623;DHT22;14254;50.968;5.366;2023-06-22T05:56:30;19.40;99.90
26623;DHT22;14254;50.968;5.366;2023-06-22T05:58:55;19.40;99.90
26623;DHT22;14254;50.968;5.366;2023-06-22T06:01:21;19.40;99.90
26623;DHT22;14254;50.968;5.366;2023-06-22T06:03:47;19.40;99.90
26623;DHT22;14254;50.968;5.366;2023-06-22T06:06:15;19.40;99.90
26623;DHT22;14254;50.968;5.366;2023-06-22T06:08:41;19.50;99.90
26623;DHT22;14254;50.968;5.366;2023-06-22T06:11:06;19.60;99.90
26623;DHT22;14254;50.968;5.366;2023-06-22T06:13:32;19.60;99.90
26623;DHT22;14254;50.968;5.366;2023-06-22T06:15:58;19.70;99.90
26623;DHT22;14254;50.968;5.366;2023-06-22T06:18:25;19.80;99.90
26623;DHT22;14254;50.968;5.366;2023-06-22T06:20:50;19.80;99.90
26623;DHT22;14254;50.968;5.366;2023-06-22T06:23:16;19.80;99.90
26623;DHT22;14254;50.968;5.366;2023-06-22T06:25:42;20.00;99.90
26623;DHT22;14254;50.968;5.366;2023-06-22T06:28:08;20.20;99.90
26623;DHT22;14254;50.968;5.366;2023-06-22T06:30:33;20.30;99.90
26623;DHT22;14254;50.968;5.366;2023-06-22T06:33:00;20.30;99.90
26623;DHT22;14254;50.968;5.366;2023-06-22T06:35:26;20.30;99.90
26623;DHT22;14254;50.968;5.366;2023-06-22T06:37:51;20.40;99.90
26623;DHT22;14254;50.968;5.366;2023-06-22T06:40:17;20.40;99.90
26623;DHT22;14254;50.968;5.366;2023-06-22T06:42:48;20.40;99.90
26623;DHT22;14254;50.968;5.366;2023-06-22T06:45:18;20.10;99.90
26623;DHT22;14254;50.968;5.366;2023-06-22T06:47:44;20.10;99.90
26623;DHT22;14254;50.968;5.366;2023-06-22T06:50:10;20.00;99.90
26623;DHT22;14254;50.968;5.366;2023-06-22T06:52:36;20.10;99.90
26623;DHT22;14254;50.968;5.366;2023-06-22T06:55:02;20.10;99.90
26623;DHT22;14254;50.968;5.366;2023-06-22T06:57:30;20.10;99.90
26623;DHT22;14254;50.968;5.366;2023-06-22T06:59:58;20.20;99.90
26623;DHT22;14254;50.968;5.366;2023-06-22T07:02:25;20.40;99.90
26623;DHT22;14254;50.968;5.366;2023-06-22T07:04:53;20.60;99.90
26623;DHT22;14254;50.968;5.366;2023-06-22T07:07:20;20.60;99.90
26623;DHT22;14254;50.968;5.366;2023-06-22T07:09:46;20.80;99.90
26623;DHT22;14254;50.968;5.366;2023-06-22T07:12:12;20.80;99.90
26623;DHT22;14254;50.968;5.366;2023-06-22T07:14:38;20.80;99.90
26623;DHT22;14254;50.968;5.366;2023-06-22T07:17:04;21.00;99.90
26623;DHT22;14254;50.968;5.366;2023-06-22T07:19:29;21.20;99.90
26623;DHT22;14254;50.968;5.366;2023-06-22T07:21:56;21.20;99.90
26623;DHT22;14254;50.968;5.366;2023-06-22T07:24:22;21.10;99.90
26623;DHT22;14254;50.968;5.366;2023-06-22T07:26:49;21.40;99.90
26623;DHT22;14254;50.968;5.366;2023-06-22T07:29:18;21.60;99.90
26623;DHT22;14254;50.968;5.366;2023-06-22T07:31:46;21.50;99.90
26623;DHT22;14254;50.968;5.366;2023-06-22T07:34:12;21.60;99.90
26623;DHT22;14254;50.968;5.366;2023-06-22T07:36:38;21.80;99.90
26623;DHT22;14254;50.968;5.366;2023-06-22T07:39:04;21.60;99.90
26623;DHT22;14254;50.968;5.366;2023-06-22T07:41:30;21.80;99.90
26623;DHT22;14254;50.968;5.366;2023-06-22T07:43:56;22.00;99.90
26623;DHT22;14254;50.968;5.366;2023-06-22T07:46:22;22.10;99.90
26623;DHT22;14254;50.968;5.366;2023-06-22T07:48:48;22.20;99.90
26623;DHT22;14254;50.968;5.366;2023-06-22T07:51:13;22.10;99.90
26623;DHT22;14254;50.968;5.366;2023-06-22T07:53:41;22.10;99.90
26623;DHT22;14254;50.968;5.366;2023-06-22T07:56:09;22.00;99.90
26623;DHT22;14254;50.968;5.366;2023-06-22T07:58:35;22.00;99.90
26623;DHT22;14254;50.968;5.366;2023-06-22T08:01:01;22.00;99.90
26623;DHT22;14254;50.968;5.366;2023-06-22T08:03:27;22.10;99.90
26623;DHT22;14254;50.968;5.366;2023-06-22T08:05:53;22.20;99.90
26623;DHT22;14254;50.968;5.366;2023-06-22T08:08:19;22.30;99.90
26623;DHT22;14254;50.968;5.366;2023-06-22T08:10:44;22.50;99.90
26623;DHT22;14254;50.968;5.366;2023-06-22T08:13:10;22.70;99.90
26623;DHT22;14254;50.968;5.366;2023-06-22T08:15:36;22.80;99.90
26623;DHT22;14254;50.968;5.366;2023-06-22T08:18:01;22.80;99.90
26623;DHT22;14254;50.968;5.366;2023-06-22T08:20:27;23.00;99.90
26623;DHT22;14254;50.968;5.366;2023-06-22T08:22:54;23.10;99.90
26623;DHT22;14254;50.968;5.366;2023-06-22T08:25:20;23.10;99.90
26623;DHT22;14254;50.968;5.366;2023-06-22T08:27:47;23.10;99.90
26623;DHT22;14254;50.968;5.366;2023-06-22T08:30:14;23.20;99.90
26623;DHT22;14254;50.968;5.366;2023-06-22T08:32:39;23.30;99.90
26623;DHT22;14254;50.968;5.366;2023-06-22T08:35:06;23.40;99.90
26623;DHT22;14254;50.968;5.366;2023-06-22T08:37:35;23.60;99.90
26623;DHT22;14254;50.968;5.366;2023-06-22T08:40:03;23.30;99.90
26623;DHT22;14254;50.968;5.366;2023-06-22T08:42:40;23.10;99.90
26623;DHT22;14254;50.968;5.366;2023-06-22T08:45:06;23.20;99.90
26623;DHT22;14254;50.968;5.366;2023-06-22T08:47:32;23.20;99.90
26623;DHT22;14254;50.968;5.366;2023-06-22T08:49:58;23.60;99.90
26623;DHT22;14254;50.968;5.366;2023-06-22T08:52:23;24.00;99.90
26623;DHT22;14254;50.968;5.366;2023-06-22T08:54:49;24.20;99.90
26623;DHT22;14254;50.968;5.366;2023-06-22T08:57:15;24.20;99.90
26623;DHT22;14254;50.968;5.366;2023-06-22T08:59:42;24.00;99.90
26623;DHT22;14254;50.968;5.366;2023-06-22T09:02:07;24.10;99.90
26623;DHT22;14254;50.968;5.366;2023-06-22T09:04:33;23.70;99.90
26623;DHT22;14254;50.968;5.366;2023-06-22T09:07:02;23.60;99.90
26623;DHT22;14254;50.968;5.366;2023-06-22T09:09:28;23.60;99.90
26623;DHT22;14254;50.968;5.366;2023-06-22T09:11:54;23.50;99.90
26623;DHT22;14254;50.968;5.366;2023-06-22T09:14:19;23.30;99.90
26623;DHT22;14254;50.968;5.366;2023-06-22T09:16:45;23.10;99.90
26623;DHT22;14254;50.968;5.366;2023-06-22T09:19:11;23.20;99.90
26623;DHT22;14254;50.968;5.366;2023-06-22T09:21:37;23.10;99.90
26623;DHT22;14254;50.968;5.366;2023-06-22T09:24:03;23.30;99.90
26623;DHT22;14254;50.968;5.366;2023-06-22T09:26:29;23.30;99.90
26623;DHT22;14254;50.968;5.366;2023-06-22T09:28:54;23.30;99.90
26623;DHT22;14254;50.968;5.366;2023-06-22T09:31:20;23.30;99.90
26623;DHT22;14254;50.968;5.366;2023-06-22T09:33:53;23.30;99.90
26623;DHT22;14254;50.968;5.366;2023-06-22T09:36:20;23.50;99.90
26623;DHT22;14254;50.968;5.366;2023-06-22T09:38:47;23.60;99.90
26623;DHT22;14254;50.968;5.366;2023-06-22T09:41:13;23.60;99.90
26623;DHT22;14254;50.968;5.366;2023-06-22T09:43:38;23.50;99.90
26623;DHT22;14254;50.968;5.366;2023-06-22T09:46:04;23.50;99.90
26623;DHT22;14254;50.968;5.366;2023-06-22T09:48:29;23.50;99.90
26623;DHT22;14254;50.968;5.366;2023-06-22T09:50:56;23.60;99.90
26623;DHT22;14254;50.968;5.366;2023-06-22T09:53:22;23.70;99.90
26623;DHT22;14254;50.968;5.366;2023-06-22T09:55:47;23.70;99.90
26623;DHT22;14254;50.968;5.366;2023-06-22T09:58:13;24.00;99.90
26623;DHT22;14254;50.968;5.366;2023-06-22T10:00:39;24.10;99.90
26623;DHT22;14254;50.968;5.366;2023-06-22T10:03:06;24.20;99.90
26623;DHT22;14254;50.968;5.366;2023-06-22T10:05:32;24.10;99.90
26623;DHT22;14254;50.968;5.366;2023-06-22T10:07:58;23.70;99.90
26623;DHT22;14254;50.968;5.366;2023-06-22T10:10:24;23.70;99.90
26623;DHT22;14254;50.968;5.366;2023-06-22T10:12:56;23.60;99.90
26623;DHT22;14254;50.968;5.366;2023-06-22T10:15:22;23.40;99.90
26623;DHT22;14254;50.968;5.366;2023-06-22T10:17:48;23.20;99.90
26623;DHT22;14254;50.968;5.366;2023-06-22T10:20:14;23.00;99.90
26623;DHT22;14254;50.968;5.366;2023-06-22T10:22:44;22.60;99.90
26623;DHT22;14254;50.968;5.366;2023-06-22T10:25:12;22.10;99.90
26623;DHT22;14254;50.968;5.366;2023-06-22T10:27:38;21.80;99.90
26623;DHT22;14254;50.968;5.366;2023-06-22T10:30:08;21.70;99.90
26623;DHT22;14254;50.968;5.366;2023-06-22T10:32:35;21.80;99.90
26623;DHT22;14254;50.968;5.366;2023-06-22T10:35:01;21.80;99.90
26623;DHT22;14254;50.968;5.366;2023-06-22T10:37:27;21.60;99.90
26623;DHT22;14254;50.968;5.366;2023-06-22T10:39:52;21.40;99.90
26623;DHT22;14254;50.968;5.366;2023-06-22T10:42:18;21.20;99.90
26623;DHT22;14254;50.968;5.366;2023-06-22T10:44:44;21.00;99.90
26623;DHT22;14254;50.968;5.366;2023-06-22T10:47:10;20.80;99.90
26623;DHT22;14254;50.968;5.366;2023-06-22T10:49:38;20.90;99.90
26623;DHT22;14254;50.968;5.366;2023-06-22T10:52:05;20.80;99.90
26623;DHT22;14254;50.968;5.366;2023-06-22T10:54:32;20.80;99.90
26623;DHT22;14254;50.968;5.366;2023-06-22T10:56:59;20.70;99.90
26623;DHT22;14254;50.968;5.366;2023-06-22T10:59:25;20.70;99.90
26623;DHT22;14254;50.968;5.366;2023-06-22T11:01:51;20.60;99.90
26623;DHT22;14254;50.968;5.366;2023-06-22T11:04:17;20.70;99.90
26623;DHT22;14254;50.968;5.366;2023-06-22T11:06:43;20.80;99.90
26623;DHT22;14254;50.968;5.366;2023-06-22T11:09:09;20.70;99.90
26623;DHT22;14254;50.968;5.366;2023-06-22T11:11:35;20.70;99.90
26623;DHT22;14254;50.968;5.366;2023-06-22T11:14:00;20.80;99.90
26623;DHT22;14254;50.968;5.366;2023-06-22T11:16:26;20.60;99.90
26623;DHT22;14254;50.968;5.366;2023-06-22T11:18:52;20.60;99.90
26623;DHT22;14254;50.968;5.366;2023-06-22T11:21:18;20.70;99.90
26623;DHT22;14254;50.968;5.366;2023-06-22T11:23:43;20.70;99.90
26623;DHT22;14254;50.968;5.366;2023-06-22T11:26:09;20.80;99.90
26623;DHT22;14254;50.968;5.366;2023-06-22T11:28:35;20.90;99.90
26623;DHT22;14254;50.968;5.366;2023-06-22T11:31:00;21.10;99.90
26623;DHT22;14254;50.968;5.366;2023-06-22T11:33:27;21.20;99.90
26623;DHT22;14254;50.968;5.366;2023-06-22T11:35:52;21.40;99.90
26623;DHT22;14254;50.968;5.366;2023-06-22T11:38:18;21.70;99.90
26623;DHT22;14254;50.968;5.366;2023-06-22T11:40:44;22.10;99.90
26623;DHT22;14254;50.968;5.366;2023-06-22T11:43:10;22.30;99.90
26623;DHT22;14254;50.968;5.366;2023-06-22T11:45:35;22.10;99.90
26623;DHT22;14254;50.968;5.366;2023-06-22T11:48:01;21.80;99.90
26623;DHT22;14254;50.968;5.366;2023-06-22T11:50:27;21.70;99.90
26623;DHT22;14254;50.968;5.366;2023-06-22T11:52:55;21.50;99.90
26623;DHT22;14254;50.968;5.366;2023-06-22T11:55:21;21.30;99.90
26623;DHT22;14254;50.968;5.366;2023-06-22T11:57:57;21.40;99.90
26623;DHT22;14254;50.968;5.366;2023-06-22T12:00:25;21.30;99.90
26623;DHT22;14254;50.968;5.366;2023-06-22T12:02:51;21.20;99.90
26623;DHT22;14254;50.968;5.366;2023-06-22T12:05:19;21.10;99.90
26623;DHT22;14254;50.968;5.366;2023-06-22T12:07:46;21.00;99.90
26623;DHT22;14254;50.968;5.366;2023-06-22T12:10:11;21.00;99.90
26623;DHT22;14254;50.968;5.366;2023-06-22T12:12:38;20.90;99.90
26623;DHT22;14254;50.968;5.366;2023-06-22T12:15:03;20.80;99.90
26623;DHT22;14254;50.968;5.366;2023-06-22T12:17:30;20.60;99.90
26623;DHT22;14254;50.968;5.366;2023-06-22T12:19:56;20.40;99.90
26623;DHT22;14254;50.968;5.366;2023-06-22T12:22:21;20.30;99.90
26623;DHT22;14254;50.968;5.366;2023-06-22T12:24:47;20.30;99.90
26623;DHT22;14254;50.968;5.366;2023-06-22T12:27:13;20.30;99.90
26623;DHT22;14254;50.968;5.366;2023-06-22T12:29:41;20.20;99.90
26623;DHT22;14254;50.968;5.366;2023-06-22T12:32:07;20.10;99.90
26623;DHT22;14254;50.968;5.366;2023-06-22T12:34:33;20.00;99.90
26623;DHT22;14254;50.968;5.366;2023-06-22T12:36:58;20.00;99.90
26623;DHT22;14254;50.968;5.366;2023-06-22T12:39:24;20.10;99.90
26623;DHT22;14254;50.968;5.366;2023-06-22T12:41:50;20.10;99.90
26623;DHT22;14254;50.968;5.366;2023-06-22T12:44:15;20.00;99.90
26623;DHT22;14254;50.968;5.366;2023-06-22T12:46:41;20.00;99.90
26623;DHT22;14254;50.968;5.366;2023-06-22T12:49:07;19.90;99.90
26623;DHT22;14254;50.968;5.366;2023-06-22T12:51:32;19.90;99.90
26623;DHT22;14254;50.968;5.366;2023-06-22T12:53:59;19.80;99.90
26623;DHT22;14254;50.968;5.366;2023-06-22T12:56:25;19.90;99.90
26623;DHT22;14254;50.968;5.366;2023-06-22T12:58:50;19.90;99.90
26623;DHT22;14254;50.968;5.366;2023-06-22T13:01:16;19.90;99.90
26623;DHT22;14254;50.968;5.366;2023-06-22T13:03:43;19.80;99.90
26623;DHT22;14254;50.968;5.366;2023-06-22T13:06:09;19.80;99.90
26623;DHT22;14254;50.968;5.366;2023-06-22T13:08:34;19.70;99.90
26623;DHT22;14254;50.968;5.366;2023-06-22T13:11:00;19.70;99.90
26623;DHT22;14254;50.968;5.366;2023-06-22T13:13:26;19.70;99.90
26623;DHT22;14254;50.968;5.366;2023-06-22T13:15:55;19.70;99.90
26623;DHT22;14254;50.968;5.366;2023-06-22T13:18:20;19.60;99.90
26623;DHT22;14254;50.968;5.366;2023-06-22T13:20:46;19.60;99.90
26623;DHT22;14254;50.968;5.366;2023-06-22T13:23:13;19.60;99.90
26623;DHT22;14254;50.968;5.366;2023-06-22T13:25:39;19.60;99.90
26623;DHT22;14254;50.968;5.366;2023-06-22T13:28:04;19.50;99.90
26623;DHT22;14254;50.968;5.366;2023-06-22T13:30:30;19.40;99.90
26623;DHT22;14254;50.968;5.366;2023-06-22T13:32:57;19.30;99.90
26623;DHT22;14254;50.968;5.366;2023-06-22T13:35:23;19.30;99.90
26623;DHT22;14254;50.968;5.366;2023-06-22T13:37:48;19.20;99.90
26623;DHT22;14254;50.968;5.366;2023-06-22T13:40:14;19.20;99.90
26623;DHT22;14254;50.968;5.366;2023-06-22T13:42:40;19.10;99.90
26623;DHT22;14254;50.968;5.366;2023-06-22T13:45:07;19.10;99.90
26623;DHT22;14254;50.968;5.366;2023-06-22T13:47:33;19.00;99.90
26623;DHT22;14254;50.968;5.366;2023-06-22T13:49:59;19.00;99.90
26623;DHT22;14254;50.968;5.366;2023-06-22T13:52:24;19.00;99.90
26623;DHT22;14254;50.968;5.366;2023-06-22T13:54:50;18.90;99.90
26623;DHT22;14254;50.968;5.366;2023-06-22T13:57:16;18.90;99.90
26623;DHT22;14254;50.968;5.366;2023-06-22T13:59:41;19.00;99.90
26623;DHT22;14254;50.968;5.366;2023-06-22T14:02:07;18.90;99.90
26623;DHT22;14254;50.968;5.366;2023-06-22T14:04:33;18.90;99.90
26623;DHT22;14254;50.968;5.366;2023-06-22T14:06:59;18.80;99.90
26623;DHT22;14254;50.968;5.366;2023-06-22T14:09:24;18.80;99.90
26623;DHT22;14254;50.968;5.366;2023-06-22T14:11:50;18.80;99.90
26623;DHT22;14254;50.968;5.366;2023-06-22T14:14:16;18.80;99.90
26623;DHT22;14254;50.968;5.366;2023-06-22T14:16:42;18.80;99.90
26623;DHT22;14254;50.968;5.366;2023-06-22T14:19:07;18.80;99.90
26623;DHT22;14254;50.968;5.366;2023-06-22T14:21:33;18.80;99.90
26623;DHT22;14254;50.968;5.366;2023-06-22T14:23:59;18.70;99.90
26623;DHT22;14254;50.968;5.366;2023-06-22T14:26:24;18.70;99.90
26623;DHT22;14254;50.968;5.366;2023-06-22T14:28:50;18.60;99.90
26623;DHT22;14254;50.968;5.366;2023-06-22T14:31:19;18.60;99.90
26623;DHT22;14254;50.968;5.366;2023-06-22T14:33:49;18.60;99.90
26623;DHT22;14254;50.968;5.366;2023-06-22T14:36:16;18.50;99.90
26623;DHT22;14254;50.968;5.366;2023-06-22T14:38:42;18.50;99.90
26623;DHT22;14254;50.968;5.366;2023-06-22T14:41:08;18.50;99.90
26623;DHT22;14254;50.968;5.366;2023-06-22T14:43:34;18.40;99.90
26623;DHT22;14254;50.968;5.366;2023-06-22T14:46:00;18.40;99.90
26623;DHT22;14254;50.968;5.366;2023-06-22T14:48:26;18.40;99.90
26623;DHT22;14254;50.968;5.366;2023-06-22T14:50:51;18.30;99.90
26623;DHT22;14254;50.968;5.366;2023-06-22T14:53:19;18.30;99.90
26623;DHT22;14254;50.968;5.366;2023-06-22T14:55:45;18.30;99.90
26623;DHT22;14254;50.968;5.366;2023-06-22T14:58:11;18.30;99.90
26623;DHT22;14254;50.968;5.366;2023-06-22T15:00:37;18.30;99.90
26623;DHT22;14254;50.968;5.366;2023-06-22T15:03:04;18.20;99.90
26623;DHT22;14254;50.968;5.366;2023-06-22T15:05:32;18.20;99.90
26623;DHT22;14254;50.968;5.366;2023-06-22T15:07:58;18.30;99.90
26623;DHT22;14254;50.968;5.366;2023-06-22T15:10:24;18.30;99.90
26623;DHT22;14254;50.968;5.366;2023-06-22T15:12:50;18.20;99.90
26623;DHT22;14254;50.968;5.366;2023-06-22T15:15:15;18.20;99.90
26623;DHT22;14254;50.968;5.366;2023-06-22T15:17:41;18.20;99.90
26623;DHT22;14254;50.968;5.366;2023-06-22T15:20:07;18.10;99.90
26623;DHT22;14254;50.968;5.366;2023-06-22T15:22:33;18.10;99.90
26623;DHT22;14254;50.968;5.366;2023-06-22T15:24:58;18.10;99.90
26623;DHT22;14254;50.968;5.366;2023-06-22T15:27:24;18.10;99.90
26623;DHT22;14254;50.968;5.366;2023-06-22T15:29:50;18.00;99.90